Time;durP1;ratioP1;P1;durP2;ratioP2;P2;SDS_P1;SDS_P2;PMS_P1;PMS_P2;Temp;Humidity;BMP_temperature;BMP_pressure;BME280_temperature;BME280_humidity;BME280_pressure;Samples;Min_cycle;Max_cycle;Signal;HPM_P1;HPM_P2
2023/12/29 00:00:28;;;;;;;6.63;1.93;;;8.80;99.90;;;9.16;100.00;97940.91;5045306;28;20465;-82
2023/12/29 00:02:57;;;;;;;3.10;1.70;;;8.80;99.90;;;9.17;100.00;97947.75;5046059;28;20824;-82
2023/12/29 00:05:26;;;;;;;3.30;2.00;;;8.80;99.90;;;9.19;100.00;97934.53;5046679;28;20460;-82
2023/12/29 00:07:55;;;;;;;1.90;1.30;;;8.80;99.90;;;9.17;100.00;97937.31;5046989;28;20496;-83
2023/12/29 00:10:25;;;;;;;2.23;1.50;;;8.80;99.90;;;9.17;100.00;97928.66;5044020;28;20460;-83
2023/12/29 00:12:53;;;;;;;3.20;1.40;;;8.80;99.90;;;9.14;100.00;97929.84;5044687;28;20472;-83
2023/12/29 00:15:22;;;;;;;4.40;2.00;;;8.80;99.90;;;9.16;100.00;97935.72;5047685;28;20812;-83
2023/12/29 00:17:52;;;;;;;4.20;1.70;;;8.80;99.90;;;9.14;100.00;97931.63;5046715;28;20477;-82
2023/12/29 00:20:21;;;;;;;1.40;1.30;;;8.80;99.90;;;9.18;100.00;97923.28;5048278;28;20567;-82
2023/12/29 00:23:05;;;;;;;2.83;1.50;;;8.80;99.90;;;9.20;100.00;97918.69;5050629;28;20534;-82
2023/12/29 00:25:37;;;;;;;1.97;1.30;;;8.80;99.90;;;9.15;100.00;97920.22;5047120;28;20492;-83
2023/12/29 00:28:06;;;;;;;3.87;1.73;;;8.80;99.90;;;9.16;100.00;97914.03;5045903;28;21013;-82
2023/12/29 00:30:39;;;;;;;6.93;1.70;;;8.80;99.90;;;9.18;100.00;97912.84;5044749;28;20506;-82
2023/12/29 00:33:24;;;;;;;2.63;1.43;;;8.80;99.90;;;9.18;100.00;97909.41;5050497;28;20962;-82
2023/12/29 00:35:53;;;;;;;1.70;1.40;;;8.80;99.90;;;9.21;100.00;97909.06;5045755;28;20960;-82
2023/12/29 00:38:22;;;;;;;4.03;1.70;;;8.80;99.90;;;9.21;100.00;97909.06;5048416;28;21209;-82
2023/12/29 00:40:52;;;;;;;2.60;1.50;;;8.80;99.90;;;9.18;100.00;97912.03;5048787;28;20475;-83
2023/12/29 00:43:20;;;;;;;3.70;2.00;;;8.80;99.90;;;9.15;100.00;97910.59;5047474;28;20466;-82
2023/12/29 00:45:49;;;;;;;3.77;1.70;;;8.70;99.90;;;9.15;100.00;97913.22;5047954;28;20540;-82
2023/12/29 00:48:18;;;;;;;4.73;1.90;;;8.60;99.90;;;9.17;100.00;97924.25;5045761;28;20613;-82
2023/12/29 00:50:47;;;;;;;1.60;1.50;;;8.70;99.90;;;9.15;100.00;97918.44;5046894;28;20453;-82
2023/12/29 00:53:15;;;;;;;2.40;1.87;;;8.80;99.90;;;9.15;100.00;97908.00;5046122;28;20469;-82
2023/12/29 00:55:44;;;;;;;2.60;1.30;;;8.80;99.90;;;9.15;100.00;97913.22;5045723;28;20469;-82
2023/12/29 00:58:14;;;;;;;2.20;1.47;;;8.80;99.90;;;9.16;100.00;97909.63;5047032;28;20553;-82
2023/12/29 01:00:42;;;;;;;3.63;1.57;;;8.80;99.90;;;9.19;100.00;97898.81;5045982;28;21684;-82
2023/12/29 01:03:11;;;;;;;6.37;1.37;;;8.80;99.90;;;9.17;100.00;97892.97;5043680;28;20469;-82
2023/12/29 01:05:40;;;;;;;1.90;1.50;;;8.80;99.90;;;9.18;100.00;97891.16;5047998;28;20554;-82
2023/12/29 01:08:08;;;;;;;6.63;2.60;;;8.80;99.90;;;9.18;100.00;97891.97;5047194;28;20496;-82
2023/12/29 01:10:37;;;;;;;3.60;1.90;;;8.80;99.90;;;9.13;100.00;97890.91;5043439;28;20464;-83
2023/12/29 01:13:06;;;;;;;2.43;1.60;;;8.70;99.90;;;9.10;100.00;97886.84;5050429;28;20475;-83
2023/12/29 01:15:36;;;;;;;3.53;1.77;;;8.60;99.90;;;9.12;100.00;97876.25;5049182;28;20469;-83
2023/12/29 01:18:05;;;;;;;2.80;1.60;;;8.70;99.90;;;9.10;100.00;97879.84;5049064;28;20476;-83
2023/12/29 01:20:34;;;;;;;2.33;1.50;;;8.80;99.90;;;9.10;100.00;97874.63;5048154;28;20995;-83
2023/12/29 01:23:03;;;;;;;2.20;1.53;;;8.80;99.90;;;9.06;100.00;97877.75;5050528;28;20514;-82
2023/12/29 01:25:31;;;;;;;2.27;1.53;;;8.50;99.90;;;9.04;100.00;97880.56;5049266;28;20982;-82
2023/12/29 01:28:00;;;;;;;2.00;1.43;;;8.60;99.90;;;9.10;100.00;97892.88;5050830;28;21027;-83
2023/12/29 01:30:28;;;;;;;2.70;1.40;;;8.60;99.90;;;9.13;100.00;97873.44;5050960;28;20465;-83
2023/12/29 01:32:58;;;;;;;2.60;1.50;;;8.80;99.90;;;9.16;100.00;97878.31;5051145;28;20460;-83
2023/12/29 01:35:27;;;;;;;4.50;1.53;;;8.80;99.90;;;9.18;100.00;97870.28;5052120;28;20483;-82
2023/12/29 01:37:56;;;;;;;12.17;2.00;;;8.80;99.90;;;9.15;100.00;97879.28;5053596;28;20927;-83
2023/12/29 01:40:25;;;;;;;2.00;1.40;;;8.80;99.90;;;9.18;100.00;97881.53;5050458;28;20468;-83
2023/12/29 01:42:54;;;;;;;3.30;1.50;;;8.80;99.90;;;9.17;100.00;97879.09;5050152;28;22871;-83
2023/12/29 01:45:26;;;;;;;1.57;1.47;;;8.80;99.90;;;9.18;100.00;97878.13;5047975;28;20460;-82
2023/12/29 01:47:55;;;;;;;2.27;1.67;;;8.80;99.90;;;9.14;100.00;97880.28;5049786;28;20488;-83
2023/12/29 01:50:25;;;;;;;3.07;1.73;;;8.70;99.90;;;9.14;100.00;97880.28;5049151;28;20471;-83
2023/12/29 01:52:56;;;;;;;3.43;1.50;;;8.70;99.90;;;9.15;100.00;97886.31;5046772;28;20461;-83
2023/12/29 01:55:27;;;;;;;2.63;1.53;;;8.80;99.90;;;9.13;100.00;97883.88;5049279;28;20454;-83
2023/12/29 01:57:57;;;;;;;2.70;1.80;;;8.70;99.90;;;9.15;100.00;97892.34;5050727;28;20469;-83
2023/12/29 02:00:27;;;;;;;2.93;1.90;;;8.70;99.90;;;9.17;100.00;97881.72;5048522;28;20461;-82
2023/12/29 02:02:56;;;;;;;1.73;1.37;;;8.80;99.90;;;9.18;100.00;97875.50;5046789;28;21017;-83
2023/12/29 02:05:31;;;;;;;2.90;1.40;;;8.80;99.90;;;9.13;100.00;97881.25;5048891;28;20542;-83
2023/12/29 02:08:01;;;;;;;2.80;1.87;;;8.70;99.90;;;9.07;100.00;97876.78;5047726;28;21201;-83
2023/12/29 02:10:33;;;;;;;2.50;1.57;;;8.60;99.90;;;9.07;100.00;97885.41;5047129;28;20487;-83
2023/12/29 02:13:01;;;;;;;2.93;1.50;;;8.60;99.90;;;9.09;100.00;97880.03;5048036;28;20457;-83
2023/12/29 02:15:30;;;;;;;4.20;2.07;;;8.60;99.90;;;9.07;100.00;97868.94;5047253;28;20837;-82
2023/12/29 02:18:05;;;;;;;5.43;1.60;;;8.60;99.90;;;9.14;100.00;97874.25;5047029;28;20551;-83
2023/12/29 02:20:35;;;;;;;2.73;2.00;;;8.70;99.90;;;9.17;100.00;97868.66;5046458;28;20558;-83
2023/12/29 02:23:04;;;;;;;4.80;1.80;;;8.70;99.90;;;9.13;100.00;97870.81;5048389;28;20472;-83
2023/12/29 02:25:35;;;;;;;5.10;2.07;;;8.70;99.90;;;9.15;100.00;97874.09;5044926;28;20966;-83
2023/12/29 02:28:14;;;;;;;1.70;1.60;;;8.70;99.90;;;9.14;100.00;97882.88;5049401;28;20485;-83
2023/12/29 02:30:55;;;;;;;2.77;1.50;;;8.80;99.90;;;9.12;100.00;97887.50;5047429;28;20465;-83
2023/12/29 02:33:25;;;;;;;3.27;1.53;;;8.80;99.90;;;9.11;100.00;97875.44;5048659;28;20456;-83
2023/12/29 02:36:00;;;;;;;4.13;1.37;;;8.80;99.90;;;9.14;100.00;97879.47;5049574;28;20548;-83
2023/12/29 02:38:29;;;;;;;1.70;1.60;;;8.70;99.90;;;9.13;100.00;97872.66;5046559;28;20467;-83
2023/12/29 02:41:00;;;;;;;3.57;1.53;;;8.70;99.90;;;9.10;100.00;97874.63;5048786;28;20724;-83
2023/12/29 02:43:28;;;;;;;4.93;1.90;;;8.70;99.90;;;9.13;100.00;97877.88;5044552;28;20458;-83
2023/12/29 02:45:57;;;;;;;4.50;2.23;;;8.80;99.90;;;9.10;100.00;97868.59;5049047;28;20477;-83
2023/12/29 02:48:26;;;;;;;2.40;1.37;;;8.70;99.90;;;9.09;100.00;97867.00;5045888;28;20532;-83
2023/12/29 02:50:54;;;;;;;3.57;1.50;;;8.70;99.90;;;9.07;100.00;97866.34;5047533;28;20484;-83
2023/12/29 02:53:23;;;;;;;4.40;1.57;;;8.80;99.90;;;9.06;100.00;97859.50;5046822;28;21032;-83
2023/12/29 02:55:51;;;;;;;2.20;1.47;;;8.80;99.90;;;9.07;100.00;97871.56;5047992;28;20473;-83
2023/12/29 02:58:21;;;;;;;2.97;1.90;;;8.80;99.90;;;9.05;100.00;97868.34;5049753;28;20468;-82
2023/12/29 03:00:50;;;;;;;2.50;1.60;;;8.80;99.90;;;9.06;100.00;97869.94;5049617;28;20461;-83
2023/12/29 03:03:18;;;;;;;3.33;1.27;;;8.80;99.90;;;9.06;100.00;97862.09;5046617;28;20467;-83
2023/12/29 03:05:47;;;;;;;6.30;1.83;;;8.80;99.90;;;9.05;100.00;97857.91;5048098;28;20543;-83
2023/12/29 03:08:16;;;;;;;1.90;1.40;;;8.70;99.90;;;9.07;100.00;97855.91;5047148;28;20500;-83
2023/12/29 03:10:44;;;;;;;1.90;1.40;;;8.70;99.90;;;9.10;100.00;97851.16;5050723;28;20475;-82
2023/12/29 03:13:13;;;;;;;3.20;1.70;;;8.70;99.90;;;9.09;100.00;97846.91;5048549;28;20468;-83
2023/12/29 03:15:43;;;;;;;1.50;1.33;;;8.80;99.90;;;9.05;100.00;97850.09;5048078;28;20465;-83
2023/12/29 03:18:11;;;;;;;3.20;1.70;;;8.60;99.90;;;9.01;100.00;97854.03;5049439;28;20449;-83
2023/12/29 03:20:40;;;;;;;2.30;1.60;;;8.70;99.90;;;9.01;100.00;97843.59;5046517;28;20484;-82
2023/12/29 03:23:08;;;;;;;2.97;1.67;;;8.70;99.90;;;9.00;100.00;97836.75;5046816;28;20473;-83
2023/12/29 03:25:37;;;;;;;1.60;1.30;;;8.70;99.90;;;8.99;100.00;97856.00;5046592;28;20461;-83
2023/12/29 03:28:06;;;;;;;1.87;1.40;;;8.70;99.90;;;8.99;100.00;97845.56;5044320;28;20876;-83
2023/12/29 03:30:35;;;;;;;1.97;1.57;;;8.70;99.90;;;8.97;100.00;97832.72;5044423;28;20458;-83
2023/12/29 03:33:05;;;;;;;5.10;1.33;;;8.60;99.90;;;9.01;100.00;97834.00;5046066;28;20460;-82
2023/12/29 03:35:34;;;;;;;4.70;1.40;;;8.60;99.90;;;8.96;100.00;97831.09;5046849;28;20554;-83
2023/12/29 03:38:03;;;;;;;3.77;1.53;;;8.70;99.90;;;8.91;100.00;97835.25;5048840;28;20468;-83
2023/12/29 03:40:32;;;;;;;6.60;1.90;;;8.50;99.90;;;8.85;100.00;97828.16;5049083;28;20905;-83
2023/12/29 03:43:00;;;;;;;2.50;1.30;;;8.40;99.90;;;8.89;100.00;97818.97;5050411;28;20819;-83
2023/12/29 03:45:29;;;;;;;1.90;1.60;;;8.50;99.90;;;8.86;100.00;97827.16;5044874;28;20547;-83
2023/12/29 03:47:57;;;;;;;6.73;1.57;;;8.50;99.90;;;8.83;100.00;97820.50;5048664;28;20974;-83
2023/12/29 03:50:28;;;;;;;3.10;1.80;;;8.50;99.90;;;8.79;100.00;97821.88;5045228;28;20508;-83
2023/12/29 03:52:56;;;;;;;2.13;1.47;;;8.40;99.90;;;8.77;100.00;97812.63;5047558;28;20464;-83
2023/12/29 03:55:25;;;;;;;1.60;1.50;;;8.40;99.90;;;8.78;100.00;97814.25;5044283;28;20457;-83
2023/12/29 03:57:53;;;;;;;1.43;1.33;;;8.40;99.90;;;8.71;100.00;97816.72;5045156;28;20499;-83
2023/12/29 04:00:22;;;;;;;6.50;1.60;;;8.40;99.90;;;8.71;100.00;97824.56;5046473;28;20452;-83
2023/12/29 04:02:50;;;;;;;3.00;1.40;;;8.40;99.90;;;8.73;100.00;97827.00;5046467;28;20465;-83
2023/12/29 04:05:20;;;;;;;2.57;1.43;;;8.40;99.90;;;8.70;100.00;97827.34;5045683;28;20461;-84
2023/12/29 04:07:50;;;;;;;1.80;1.43;;;8.40;99.90;;;8.69;100.00;97820.53;5044221;28;20545;-80
2023/12/29 04:10:18;;;;;;;8.20;3.77;;;8.40;99.90;;;8.66;100.00;97813.06;5043432;28;20488;-81
2023/12/29 04:12:47;;;;;;;1.60;1.40;;;8.30;99.90;;;8.70;100.00;97811.72;5042831;28;20468;-83
2023/12/29 04:15:15;;;;;;;3.17;1.67;;;8.30;99.90;;;8.75;100.00;97814.56;5043790;28;21160;-82
2023/12/29 04:17:44;;;;;;;4.93;1.73;;;8.40;99.90;;;8.74;100.00;97799.94;5042581;28;20840;-83
2023/12/29 04:20:13;;;;;;;2.50;1.47;;;8.30;99.90;;;8.73;100.00;97808.75;5042877;28;20488;-83
2023/12/29 04:22:41;;;;;;;1.47;1.30;;;8.40;99.90;;;8.75;100.00;97804.16;5042536;28;21108;-81
2023/12/29 04:25:11;;;;;;;4.00;2.03;;;8.40;99.90;;;8.78;100.00;97809.03;5044933;28;20461;-83
2023/12/29 04:27:41;;;;;;;3.60;1.37;;;8.40;99.90;;;8.80;100.00;97802.63;5044358;28;20867;-83
2023/12/29 04:30:10;;;;;;;1.77;1.40;;;8.50;99.90;;;8.80;100.00;97802.63;5044245;28;20532;-82
2023/12/29 04:32:39;;;;;;;7.93;1.33;;;8.40;99.90;;;8.83;100.00;97804.88;5044259;28;20461;-82
2023/12/29 04:35:10;;;;;;;2.93;1.70;;;8.40;99.90;;;8.83;100.00;97804.06;5045599;28;21190;-83
2023/12/29 04:37:38;;;;;;;13.87;6.87;;;8.40;99.90;;;8.85;100.00;97817.75;5043258;28;20978;-81
2023/12/29 04:40:08;;;;;;;2.77;1.40;;;8.40;99.90;;;8.90;100.00;97816.19;5043595;28;20465;-83
2023/12/29 04:42:38;;;;;;;3.33;1.40;;;8.40;99.90;;;8.88;100.00;97818.19;5037195;28;20461;-80
2023/12/29 04:45:08;;;;;;;2.40;1.50;;;8.50;99.90;;;8.88;100.00;97807.75;5046485;28;20463;-80
2023/12/29 04:47:36;;;;;;;1.50;1.40;;;8.50;99.90;;;8.95;100.00;97802.63;5044935;28;20457;-80
2023/12/29 04:50:06;;;;;;;3.13;1.47;;;8.50;99.90;;;8.94;100.00;97807.03;5049570;28;20492;-80
2023/12/29 04:52:35;;;;;;;3.43;1.53;;;8.60;99.90;;;8.97;100.00;97811.06;5048163;28;20457;-80
2023/12/29 04:55:04;;;;;;;4.70;1.70;;;8.70;99.90;;;8.99;100.00;97803.84;5049715;28;20461;-80
2023/12/29 04:57:33;;;;;;;1.83;1.30;;;8.60;99.90;;;8.97;100.00;97811.06;5048890;28;21039;-80
2023/12/29 05:00:04;;;;;;;1.27;1.17;;;8.60;99.90;;;9.00;100.00;97810.69;5049881;28;20499;-80
2023/12/29 05:02:33;;;;;;;3.60;1.70;;;8.60;99.90;;;8.99;100.00;97798.63;5050565;28;20468;-80
2023/12/29 05:05:02;;;;;;;2.17;1.40;;;8.70;99.90;;;9.00;100.00;97808.88;5053000;28;20468;-80
2023/12/29 05:07:30;;;;;;;2.33;1.33;;;8.60;99.90;;;9.01;100.00;97805.31;5052121;28;20475;-80
2023/12/29 05:09:59;;;;;;;6.70;1.60;;;8.50;99.90;;;9.03;100.00;97805.09;5050530;28;20497;-81
2023/12/29 05:12:27;;;;;;;4.30;1.63;;;8.60;99.90;;;9.05;100.00;97814.38;5049982;28;21234;-80
2023/12/29 05:14:55;;;;;;;2.50;1.50;;;8.70;99.90;;;9.05;100.00;97809.16;5050035;28;20579;-80
2023/12/29 05:17:25;;;;;;;7.70;1.63;;;8.60;99.90;;;9.05;100.00;97805.75;5050330;28;20452;-80
2023/12/29 05:19:54;;;;;;;6.30;1.70;;;8.60;99.90;;;9.03;100.00;97798.09;5047067;28;21077;-80
2023/12/29 05:22:23;;;;;;;2.87;1.80;;;8.70;99.90;;;9.07;100.00;97811.56;5047083;28;21240;-80
2023/12/29 05:24:51;;;;;;;3.33;1.60;;;8.70;99.90;;;9.11;100.00;97799.78;5044887;28;20464;-80
2023/12/29 05:27:20;;;;;;;4.60;1.90;;;8.70;99.90;;;9.15;100.00;97813.28;5048122;28;21725;-80
2023/12/29 05:29:48;;;;;;;2.37;1.80;;;8.70;99.90;;;9.14;100.00;97814.25;5048119;28;20504;-80
2023/12/29 05:32:17;;;;;;;3.80;1.60;;;8.80;99.90;;;9.10;100.00;97812.00;5044958;28;20461;-81
2023/12/29 05:34:47;;;;;;;41.13;21.30;;;8.80;99.90;;;9.13;100.00;97812.66;5048013;28;20461;-77
2023/12/29 05:37:15;;;;;;;2.10;1.90;;;8.80;99.90;;;9.14;100.00;97815.06;5043281;28;20496;-80
2023/12/29 05:39:45;;;;;;;2.07;1.60;;;8.90;99.90;;;9.11;100.00;97818.03;5044972;28;20491;-80
2023/12/29 05:42:13;;;;;;;4.03;1.43;;;8.70;99.90;;;9.15;100.00;97814.09;5045240;28;20956;-80
2023/12/29 05:44:42;;;;;;;1.87;1.13;;;8.70;99.90;;;9.16;100.00;97809.69;5048090;28;20457;-80
2023/12/29 05:47:11;;;;;;;2.60;1.87;;;8.80;99.90;;;9.10;100.00;97800.78;5045747;28;20465;-80
2023/12/29 05:49:39;;;;;;;3.70;1.93;;;8.90;99.90;;;9.10;100.00;97803.38;5047744;28;20499;-80
2023/12/29 05:52:10;;;;;;;1.53;1.43;;;8.80;99.90;;;9.12;100.00;97798.81;5050302;28;20475;-80
2023/12/29 05:54:38;;;;;;;1.73;1.43;;;8.80;99.90;;;9.09;100.00;97799.97;5047982;28;20464;-79
2023/12/29 05:57:07;;;;;;;2.00;1.30;;;8.80;99.90;;;9.12;100.00;97798.81;5047362;28;20546;-80
2023/12/29 05:59:35;;;;;;;4.50;1.67;;;8.70;99.90;;;9.13;100.00;97800.41;5045822;28;20461;-79
2023/12/29 06:02:04;;;;;;;1.50;1.23;;;8.80;99.90;;;9.14;100.00;97799.41;5043812;28;20465;-80
2023/12/29 06:04:33;;;;;;;4.17;1.63;;;8.70;99.90;;;9.17;100.00;97808.66;5045135;28;20465;-80
2023/12/29 06:07:01;;;;;;;2.97;1.57;;;8.80;99.90;;;9.19;100.00;97801.47;5046664;28;20845;-80
2023/12/29 06:09:31;;;;;;;1.60;1.50;;;8.80;99.90;;;9.16;100.00;97799.25;5045717;28;20465;-79
2023/12/29 06:12:00;;;;;;;1.60;1.40;;;8.80;99.90;;;9.17;100.00;97801.66;5042688;28;20465;-79
2023/12/29 06:14:28;;;;;;;3.43;1.63;;;8.80;99.90;;;9.14;100.00;97796.00;5042509;28;21080;-80
2023/12/29 06:16:57;;;;;;;6.80;1.73;;;8.70;99.90;;;9.16;100.00;97794.84;5045283;28;20523;-80
2023/12/29 06:19:28;;;;;;;1.67;1.50;;;8.70;99.90;;;9.16;100.00;97792.22;5045215;28;21014;-80
2023/12/29 06:21:57;;;;;;;3.17;1.40;;;8.80;99.90;;;9.19;100.00;97798.88;5047244;28;24351;-80
2023/12/29 06:24:25;;;;;;;4.33;1.70;;;8.80;99.90;;;9.20;100.00;97796.06;5048672;28;20461;-80
2023/12/29 06:26:55;;;;;;;2.90;1.70;;;8.70;99.90;;;9.22;100.00;97788.88;5045752;28;21117;-79
2023/12/29 06:29:24;;;;;;;2.53;1.60;;;8.70;99.90;;;9.16;100.00;97794.84;5045733;28;20810;-79
2023/12/29 06:31:52;;;;;;;1.30;1.20;;;8.60;99.90;;;9.22;100.00;97798.50;5044079;28;20496;-80
2023/12/29 06:34:21;;;;;;;4.53;1.70;;;8.70;99.90;;;9.22;100.00;97788.88;5046492;28;20958;-80
2023/12/29 06:36:49;;;;;;;7.10;1.20;;;8.70;99.90;;;9.21;100.00;97784.66;5042967;28;20817;-80
2023/12/29 06:39:18;;;;;;;4.90;1.53;;;8.80;99.90;;;9.16;100.00;97776.59;5044115;28;20986;-80
2023/12/29 06:41:47;;;;;;;2.27;1.70;;;8.60;99.90;;;9.15;100.00;97772.34;5044700;28;20457;-80
2023/12/29 06:44:16;;;;;;;2.57;1.67;;;8.60;99.90;;;9.17;100.00;97778.19;5048533;28;20467;-80
2023/12/29 06:46:45;;;;;;;3.73;1.57;;;8.70;99.90;;;9.20;100.00;97774.41;5044813;28;20465;-81
2023/12/29 06:49:17;;;;;;;1.60;1.20;;;8.70;99.90;;;9.21;100.00;97762.97;5048072;28;20492;-80
2023/12/29 06:51:45;;;;;;;2.70;1.27;;;8.80;99.90;;;9.21;100.00;97769.00;5045298;28;20521;-80
2023/12/29 06:54:14;;;;;;;7.20;1.70;;;8.80;99.90;;;9.22;100.00;97767.19;5047223;28;20468;-80
2023/12/29 06:56:43;;;;;;;5.93;1.57;;;8.80;99.90;;;9.21;100.00;97771.59;5046587;28;20461;-80
2023/12/29 06:59:11;;;;;;;1.43;1.30;;;8.80;99.90;;;9.23;100.00;97777.47;5048289;28;20466;-80
2023/12/29 07:01:41;;;;;;;1.63;1.20;;;8.80;99.90;;;9.24;100.00;97786.88;5043830;28;20465;-79
2023/12/29 07:04:11;;;;;;;1.70;1.20;;;8.80;99.90;;;9.25;100.00;97791.13;5045718;28;20460;-80
2023/12/29 07:06:40;;;;;;;3.93;1.50;;;8.80;99.90;;;9.28;100.00;97793.34;5044324;28;20813;-80
2023/12/29 07:09:09;;;;;;;1.90;1.30;;;8.80;99.90;;;9.20;100.00;97796.06;5047909;28;20994;-80
2023/12/29 07:11:38;;;;;;;3.83;1.53;;;8.70;99.90;;;9.23;100.00;97798.34;5039854;28;20555;-80
2023/12/29 07:14:06;;;;;;;2.70;1.30;;;8.70;99.90;;;9.25;100.00;97814.59;5045266;28;20495;-80
2023/12/29 07:16:35;;;;;;;3.40;1.57;;;8.80;99.90;;;9.23;100.00;97810.56;5044066;28;20484;-80
2023/12/29 07:19:07;;;;;;;3.70;1.73;;;8.80;99.90;;;9.26;100.00;97810.19;5047368;28;20879;-80
2023/12/29 07:21:35;;;;;;;3.13;1.47;;;8.80;99.90;;;9.23;100.00;97811.38;5041488;28;20469;-80
2023/12/29 07:24:05;;;;;;;6.40;1.60;;;8.80;99.90;;;9.24;100.00;97810.38;5046632;28;20466;-80
2023/12/29 07:26:34;;;;;;;3.10;1.43;;;8.80;99.90;;;9.25;100.00;97803.34;5045775;28;20452;-80
2023/12/29 07:29:05;;;;;;;4.77;1.43;;;8.80;99.90;;;9.26;100.00;97805.78;5045473;28;20476;-80
2023/12/29 07:31:34;;;;;;;3.43;1.37;;;8.80;99.90;;;9.26;100.00;97804.97;5043463;28;20492;-79
2023/12/29 07:34:03;;;;;;;4.10;1.40;;;8.90;99.90;;;9.25;100.00;97809.38;5044641;28;20487;-80
2023/12/29 07:36:33;;;;;;;1.37;1.27;;;8.80;99.90;;;9.28;100.00;97809.00;5044091;28;20465;-81
2023/12/29 07:39:02;;;;;;;1.67;1.13;;;8.90;99.90;;;9.30;100.00;97807.00;5046869;28;20486;-80
2023/12/29 07:41:32;;;;;;;4.80;1.67;;;8.90;99.90;;;9.33;100.00;97811.06;5044818;28;20971;-80
2023/12/29 07:44:01;;;;;;;1.90;1.40;;;8.90;99.90;;;9.34;100.00;97813.47;5046547;28;20462;-80
2023/12/29 07:46:29;;;;;;;6.00;1.10;;;9.00;99.90;;;9.36;100.00;97815.91;5042521;28;20469;-80
2023/12/29 07:48:58;;;;;;;3.50;1.80;;;9.00;99.90;;;9.35;100.00;97809.88;5044735;28;20510;-80
2023/12/29 07:51:27;;;;;;;3.03;1.37;;;9.00;99.90;;;9.34;100.00;97821.31;5042948;28;20520;-78
2023/12/29 07:53:57;;;;;;;2.00;1.07;;;9.00;99.90;;;9.30;100.00;97822.66;5046777;28;20563;-80
2023/12/29 07:56:26;;;;;;;4.80;1.30;;;8.80;99.90;;;9.29;100.00;97813.25;5044654;28;20545;-80
2023/12/29 07:58:55;;;;;;;3.20;1.43;;;8.80;99.90;;;9.35;100.00;97814.28;5046737;28;20469;-80
2023/12/29 08:01:23;;;;;;;3.47;1.57;;;8.90;99.90;;;9.30;100.00;97822.66;5047266;28;20475;-80
2023/12/29 08:03:52;;;;;;;3.20;1.10;;;8.80;99.90;;;9.29;100.00;97810.63;5046870;28;20552;-80
2023/12/29 08:06:21;;;;;;;3.67;1.50;;;8.80;99.90;;;9.27;100.00;97823.03;5045433;28;20462;-80
2023/12/29 08:08:50;;;;;;;1.70;1.20;;;8.70;99.90;;;9.29;100.00;97831.50;5047661;28;20851;-79
2023/12/29 08:11:22;;;;;;;1.80;1.17;;;8.70;99.90;;;9.31;100.00;97824.28;5047735;28;20496;-80
2023/12/29 08:13:50;;;;;;;2.83;1.10;;;8.90;99.90;;;9.33;100.00;97832.75;5045055;28;20905;-80
2023/12/29 08:16:19;;;;;;;4.83;1.47;;;8.80;99.90;;;9.35;100.00;97830.75;5045541;28;20972;-79
2023/12/29 08:18:50;;;;;;;2.43;1.20;;;8.80;99.90;;;9.29;100.00;97826.28;5046733;28;21121;-79
2023/12/29 08:21:19;;;;;;;6.90;2.90;;;8.70;99.90;;;9.30;100.00;97827.09;5050931;28;20477;-80
2023/12/29 08:23:49;;;;;;;7.13;1.83;;;8.70;99.90;;;9.28;100.00;97824.66;5047108;28;21544;-79
2023/12/29 08:26:18;;;;;;;1.83;1.00;;;8.60;99.90;;;9.29;100.00;97826.28;5046284;28;20461;-80
2023/12/29 08:28:48;;;;;;;1.70;1.20;;;8.70;99.90;;;9.32;100.00;97830.31;5046404;28;20573;-79
2023/12/29 08:31:17;;;;;;;9.17;1.87;;;8.70;99.90;;;9.33;100.00;97829.34;5049039;28;21266;-80
2023/12/29 08:33:45;;;;;;;1.40;1.00;;;8.80;99.90;;;9.37;100.00;97823.53;5041655;28;20497;-80
2023/12/29 08:36:14;;;;;;;2.07;1.53;;;8.80;99.90;;;9.34;100.00;97823.91;5044753;28;20469;-78
2023/12/29 08:38:43;;;;;;;51.93;25.63;;;8.90;99.90;;;9.34;100.00;97823.91;5042184;28;20473;-81
2023/12/29 08:41:15;;;;;;;1.77;1.20;;;8.90;99.90;;;9.38;100.00;97824.34;5045114;28;20468;-80
2023/12/29 08:43:44;;;;;;;3.23;1.20;;;9.00;99.90;;;9.36;100.00;97819.34;5046500;28;20504;-80
2023/12/29 08:46:14;;;;;;;7.90;1.47;;;9.00;99.90;;;9.37;100.00;97812.31;5042182;28;20964;-79
2023/12/29 08:48:43;;;;;;;1.80;1.10;;;9.00;99.90;;;9.35;100.00;97817.72;5042437;28;20480;-79
2023/12/29 08:51:12;;;;;;;2.57;1.27;;;8.90;99.90;;;9.37;100.00;97818.31;5042640;28;20520;-79
2023/12/29 08:53:40;;;;;;;4.83;1.20;;;9.00;99.90;;;9.36;100.00;97821.13;5040678;28;20472;-79
2023/12/29 08:56:08;;;;;;;1.40;1.00;;;8.90;99.90;;;9.33;100.00;97821.50;5043176;28;20462;-80
2023/12/29 08:58:37;;;;;;;2.90;1.10;;;8.90;99.90;;;9.28;100.00;97814.22;5045413;28;20958;-80
2023/12/29 09:01:05;;;;;;;1.60;1.13;;;8.80;99.90;;;9.35;100.00;97809.88;5044044;28;20470;-80
2023/12/29 09:03:35;;;;;;;5.10;1.53;;;8.80;99.90;;;9.32;100.00;97807.66;5043357;28;20457;-79
2023/12/29 09:06:04;;;;;;;1.10;0.97;;;8.80;99.90;;;9.33;100.00;97808.47;5044198;28;20488;-79
2023/12/29 09:08:33;;;;;;;1.33;0.80;;;8.90;99.90;;;9.36;100.00;97811.50;5042777;28;20480;-80
2023/12/29 09:11:01;;;;;;;12.80;6.83;;;9.00;99.90;;;9.34;100.00;97808.25;5042957;28;21031;-77
2023/12/29 09:13:30;;;;;;;1.67;1.20;;;8.90;99.90;;;9.27;100.00;97817.81;5044268;28;20492;-80
2023/12/29 09:16:00;;;;;;;1.10;1.00;;;8.80;99.90;;;9.28;100.00;97813.41;5045840;28;20465;-80
2023/12/29 09:18:28;;;;;;;1.77;1.20;;;8.80;99.90;;;9.26;100.00;97811.00;5046433;28;20586;-80
2023/12/29 09:20:58;;;;;;;1.97;0.80;;;8.90;99.90;;;9.25;100.00;97819.81;5047833;28;20487;-80
2023/12/29 09:23:26;;;;;;;1.67;1.20;;;8.80;99.90;;;9.24;100.00;97815.59;5048077;28;20530;-79
2023/12/29 09:25:55;;;;;;;1.57;1.27;;;8.80;99.90;;;9.26;100.00;97815.41;5044159;28;20463;-80
2023/12/29 09:28:24;;;;;;;6.40;1.23;;;8.90;99.90;;;9.25;100.00;97813.78;5043597;28;20464;-80
2023/12/29 09:30:52;;;;;;;1.57;1.10;;;8.90;99.90;;;9.25;100.00;97814.59;5042700;28;20496;-79
2023/12/29 09:33:22;;;;;;;4.70;1.30;;;8.90;99.90;;;9.22;100.00;97816.75;5045534;28;20499;-80
2023/12/29 09:35:51;;;;;;;4.73;0.97;;;8.90;99.90;;;9.18;100.00;97810.28;5044456;28;20469;-79
2023/12/29 09:38:21;;;;;;;3.73;1.30;;;8.70;99.90;;;9.20;100.00;97811.72;5047413;28;20487;-80
2023/12/29 09:40:52;;;;;;;6.07;1.47;;;8.80;99.90;;;9.24;100.00;97818.19;5044222;28;20473;-80
2023/12/29 09:43:20;;;;;;;2.20;1.23;;;8.80;99.90;;;9.26;100.00;97815.41;5047346;28;20464;-80
2023/12/29 09:45:53;;;;;;;5.00;1.27;;;8.90;99.90;;;9.25;100.00;97822.41;5040611;28;20471;-80
2023/12/29 09:48:26;;;;;;;6.63;1.27;;;8.80;99.90;;;9.27;100.00;97830.06;5048679;28;20465;-79
2023/12/29 09:50:56;;;;;;;2.80;1.30;;;8.90;99.90;;;9.25;100.00;97830.25;5047933;28;20534;-79
2023/12/29 09:53:27;;;;;;;1.80;1.57;;;9.00;99.90;;;9.23;100.00;97824.41;5047126;28;20504;-79
2023/12/29 09:56:01;;;;;;;5.90;1.63;;;8.90;99.90;;;9.20;100.00;97827.38;5048254;28;20815;-79
2023/12/29 09:58:29;;;;;;;2.37;1.33;;;8.80;99.90;;;9.25;100.00;97824.22;5047218;28;20548;-79
2023/12/29 10:00:58;;;;;;;3.97;1.30;;;8.90;99.90;;;9.22;100.00;97824.59;5042701;28;20454;-79
2023/12/29 10:03:27;;;;;;;3.33;1.20;;;8.80;99.90;;;9.29;100.00;97830.69;5045268;28;20468;-79
2023/12/29 10:06:00;;;;;;;2.60;1.70;;;8.90;99.90;;;9.31;100.00;97842.56;5045749;28;20987;-80
2023/12/29 10:08:35;;;;;;;2.10;1.23;;;8.90;99.90;;;9.27;100.00;97838.69;5046024;28;20508;-80
2023/12/29 10:11:06;;;;;;;4.63;1.50;;;8.80;99.90;;;9.29;100.00;97841.13;5045470;28;20457;-80
2023/12/29 10:13:36;;;;;;;4.27;2.17;;;8.90;99.90;;;9.33;100.00;97848.41;5045934;28;20481;-80
2023/12/29 10:16:14;;;;;;;3.30;1.37;;;8.90;99.90;;;9.37;100.00;97844.41;5044913;28;20473;-80
2023/12/29 10:18:57;;;;;;;2.60;1.10;;;9.00;99.90;;;9.39;100.00;97832.00;5048008;28;20563;-80
2023/12/29 10:21:34;;;;;;;14.10;1.80;;;9.00;99.90;;;9.33;100.00;97832.75;5045600;28;20471;-80
2023/12/29 10:24:17;;;;;;;1.57;1.07;;;8.90;99.90;;;9.33;100.00;97827.53;5049074;28;20468;-81
2023/12/29 10:26:46;;;;;;;8.83;1.40;;;9.00;99.90;;;9.30;100.00;97838.31;5045728;28;20468;-81
2023/12/29 10:29:15;;;;;;;2.30;1.30;;;9.00;99.90;;;9.31;100.00;97836.53;5044113;28;20463;-78
2023/12/29 10:31:46;;;;;;;2.57;1.03;;;9.00;99.90;;;9.34;100.00;97844.78;5045261;28;21050;-77
2023/12/29 10:34:28;;;;;;;2.90;1.27;;;9.10;99.90;;;9.35;100.00;97835.97;5047449;28;20465;-79